createdAt,value
2023-05-19T00:00:26.858Z,84.73
2023-05-19T00:02:53.572Z,84.68
2023-05-19T00:05:20.481Z,84.84
2023-05-19T00:07:48.171Z,84.79
2023-05-19T00:10:15.524Z,84.61
2023-05-19T00:12:43.129Z,83.97
2023-05-19T00:15:10.279Z,83.69
2023-05-19T00:17:36.884Z,83.60
2023-05-19T00:20:03.742Z,83.22
2023-05-19T00:22:30.344Z,83.24
2023-05-19T00:24:56.840Z,82.98
2023-05-19T00:27:23.328Z,82.90
2023-05-19T00:29:49.825Z,83.06
2023-05-19T00:32:16.560Z,83.22
2023-05-19T00:34:43.129Z,83.08
2023-05-19T00:37:09.632Z,83.02
2023-05-19T00:39:36.116Z,83.06
2023-05-19T00:42:02.652Z,83.14
2023-05-19T00:44:29.203Z,83.34
2023-05-19T00:46:55.941Z,83.41
2023-05-19T00:49:22.496Z,83.46
2023-05-19T00:51:49.676Z,83.50
2023-05-19T00:54:16.317Z,83.44
2023-05-19T00:56:42.875Z,83.57
2023-05-19T00:59:09.404Z,83.85
2023-05-19T01:01:36.035Z,84.05
2023-05-19T01:04:02.872Z,84.17
2023-05-19T01:06:29.555Z,84.20
2023-05-19T01:08:56.125Z,84.19
2023-05-19T01:11:22.700Z,84.33
2023-05-19T01:13:49.701Z,84.48
2023-05-19T01:16:31.205Z,84.31
2023-05-19T01:19:08.591Z,84.43
2023-05-19T01:22:12.890Z,84.73
2023-05-19T01:25:00.174Z,84.74
2023-05-19T01:27:48.289Z,84.60
2023-05-19T01:30:20.710Z,84.91
2023-05-19T01:32:48.592Z,84.83
2023-05-19T01:35:16.669Z,84.86
2023-05-19T01:37:43.896Z,84.60
2023-05-19T01:40:10.916Z,84.37
2023-05-19T01:42:38.768Z,84.61
2023-05-19T01:45:06.873Z,84.66
2023-05-19T01:47:36.026Z,84.61
2023-05-19T01:50:03.098Z,84.54
2023-05-19T01:52:29.625Z,84.23
2023-05-19T01:54:56.146Z,83.89
2023-05-19T01:57:37.896Z,83.87
2023-05-19T02:00:10.049Z,84.00
2023-05-19T02:02:48.372Z,84.20
2023-05-19T02:05:23.401Z,84.36
2023-05-19T02:08:06.006Z,84.27
2023-05-19T02:10:37.246Z,84.11
2023-05-19T02:13:06.760Z,83.86
2023-05-19T02:15:40.709Z,83.88
2023-05-19T02:18:09.610Z,84.20
2023-05-19T02:20:36.361Z,84.40
2023-05-19T02:23:02.964Z,84.25
2023-05-19T02:25:29.571Z,84.10
2023-05-19T02:27:58.316Z,84.18
2023-05-19T02:30:25.200Z,84.12
2023-05-19T02:32:51.689Z,84.30
2023-05-19T02:35:18.403Z,84.16
2023-05-19T02:37:44.890Z,84.08
2023-05-19T02:40:11.580Z,84.39
2023-05-19T02:42:38.166Z,84.16
2023-05-19T02:45:05.185Z,84.21
2023-05-19T02:47:31.747Z,84.18
2023-05-19T02:49:58.255Z,84.16
2023-05-19T02:52:25.148Z,84.13
2023-05-19T02:54:51.634Z,84.09
2023-05-19T02:57:18.136Z,84.31
2023-05-19T02:59:44.602Z,84.28
2023-05-19T03:02:11.317Z,84.67
2023-05-19T03:04:37.844Z,84.66
2023-05-19T03:07:04.516Z,84.69
2023-05-19T03:09:30.993Z,84.48
2023-05-19T03:11:57.452Z,84.34
2023-05-19T03:14:24.333Z,84.55
2023-05-19T03:16:51.100Z,84.60
2023-05-19T03:19:17.905Z,84.66
2023-05-19T03:21:44.408Z,84.71
2023-05-19T03:24:10.907Z,84.96
2023-05-19T03:26:37.409Z,84.84
2023-05-19T03:29:03.941Z,84.97
2023-05-19T03:31:30.510Z,84.98
2023-05-19T03:33:57.036Z,84.71
2023-05-19T03:36:24.070Z,84.70
2023-05-19T03:38:50.609Z,84.88
2023-05-19T03:41:17.126Z,84.97
2023-05-19T03:43:43.681Z,84.98
2023-05-19T03:46:10.276Z,85.20
2023-05-19T03:48:36.834Z,85.24
2023-05-19T03:51:03.381Z,85.26
2023-05-19T03:53:29.938Z,85.23
2023-05-19T03:55:56.484Z,85.26
2023-05-19T03:58:22.966Z,85.15
2023-05-19T04:00:49.515Z,85.06
2023-05-19T04:03:16.203Z,84.88
2023-05-19T04:05:42.889Z,84.88
2023-05-19T04:08:09.440Z,84.15
2023-05-19T04:10:35.974Z,84.04
2023-05-19T04:13:02.557Z,83.76
2023-05-19T04:15:29.294Z,83.75
2023-05-19T04:17:56.156Z,83.60
2023-05-19T04:20:22.900Z,83.76
2023-05-19T04:22:49.401Z,83.92
2023-05-19T04:25:15.939Z,83.95
2023-05-19T04:27:42.477Z,84.02
2023-05-19T04:30:09.483Z,83.74
2023-05-19T04:32:36.009Z,83.49
2023-05-19T04:35:02.629Z,83.55
2023-05-19T04:37:29.171Z,83.73
2023-05-19T04:39:55.819Z,83.58
2023-05-19T04:42:22.339Z,83.64
2023-05-19T04:44:48.907Z,83.45
2023-05-19T04:47:15.652Z,83.55
2023-05-19T04:49:42.151Z,83.44
2023-05-19T04:52:10.044Z,83.04
2023-05-19T04:54:37.612Z,83.14
2023-05-19T04:57:04.940Z,82.86
2023-05-19T04:59:31.701Z,82.75
2023-05-19T05:01:58.242Z,82.39
2023-05-19T05:04:24.829Z,82.18
2023-05-19T05:06:51.327Z,82.23
2023-05-19T05:09:18.297Z,82.58
2023-05-19T05:11:45.133Z,82.30
2023-05-19T05:14:11.964Z,81.93
2023-05-19T05:16:38.876Z,82.06
2023-05-19T05:19:05.652Z,81.94
2023-05-19T05:21:32.564Z,81.10
2023-05-19T05:23:59.362Z,81.24
2023-05-19T05:26:30.018Z,81.38
2023-05-19T05:28:56.540Z,81.34
2023-05-19T05:31:23.093Z,81.12
2023-05-19T05:33:50.001Z,81.13
2023-05-19T05:36:16.550Z,81.15
2023-05-19T05:38:43.063Z,81.34
2023-05-19T05:41:09.651Z,81.60
2023-05-19T05:43:36.194Z,81.26
2023-05-19T05:46:02.751Z,81.57
2023-05-19T05:48:29.533Z,81.81
2023-05-19T05:50:57.196Z,81.48
2023-05-19T05:53:25.466Z,81.00
2023-05-19T05:55:52.358Z,81.00
2023-05-19T05:58:19.024Z,80.54
2023-05-19T06:00:45.535Z,79.48
2023-05-19T06:03:12.292Z,79.42
2023-05-19T06:05:39.023Z,78.58
2023-05-19T06:08:06.019Z,78.84
2023-05-19T06:10:33.422Z,78.96
2023-05-19T06:13:00.153Z,79.04
2023-05-19T06:15:26.805Z,78.02
2023-05-19T06:17:53.884Z,78.07
2023-05-19T06:20:20.477Z,78.08
2023-05-19T06:22:47.015Z,77.74
2023-05-19T06:25:13.527Z,78.35
2023-05-19T06:27:40.064Z,78.36
2023-05-19T06:30:07.485Z,77.57
2023-05-19T06:32:34.090Z,77.47
2023-05-19T06:35:00.673Z,77.45
2023-05-19T06:37:27.304Z,76.60
2023-05-19T06:39:53.934Z,76.55
2023-05-19T06:42:20.849Z,75.89
2023-05-19T06:44:47.534Z,76.06
2023-05-19T06:47:14.146Z,75.58
2023-05-19T06:49:40.705Z,76.02
2023-05-19T06:52:07.194Z,76.26
2023-05-19T06:54:33.780Z,75.43
2023-05-19T06:57:00.262Z,73.96
2023-05-19T06:59:27.341Z,73.56
2023-05-19T07:01:53.890Z,73.79
2023-05-19T07:04:20.494Z,73.84
2023-05-19T07:06:47.142Z,73.52
2023-05-19T07:09:13.674Z,73.95
2023-05-19T07:11:40.524Z,73.72
2023-05-19T07:14:07.227Z,74.10
2023-05-19T07:16:41.366Z,74.05
2023-05-19T07:19:11.241Z,73.95
2023-05-19T07:21:37.851Z,74.31
2023-05-19T07:24:04.564Z,73.42
2023-05-19T07:26:31.072Z,73.04
2023-05-19T07:28:57.580Z,72.50
2023-05-19T07:31:24.113Z,73.25
2023-05-19T07:33:53.011Z,73.40
2023-05-19T07:36:20.993Z,72.85
2023-05-19T07:38:47.585Z,72.32
2023-05-19T07:41:14.103Z,71.05
2023-05-19T07:43:40.628Z,71.02
2023-05-19T07:46:07.178Z,71.12
2023-05-19T07:48:33.689Z,70.45
2023-05-19T07:51:00.241Z,69.90
2023-05-19T07:53:26.764Z,70.09
2023-05-19T07:55:53.300Z,69.96
2023-05-19T07:58:19.882Z,69.68
2023-05-19T08:00:46.415Z,68.93
2023-05-19T08:03:13.140Z,68.56
2023-05-19T08:05:39.855Z,69.45
2023-05-19T08:08:06.331Z,69.20
2023-05-19T08:10:33.065Z,68.59
2023-05-19T08:12:59.751Z,67.02
2023-05-19T08:15:26.444Z,67.31
2023-05-19T08:17:53.120Z,66.37
2023-05-19T08:20:19.752Z,66.11
2023-05-19T08:22:46.476Z,66.42
2023-05-19T08:25:13.035Z,67.24
2023-05-19T08:27:39.660Z,67.50
2023-05-19T08:30:06.992Z,67.36
2023-05-19T08:32:33.552Z,67.11
2023-05-19T08:35:00.224Z,66.72
2023-05-19T08:37:26.796Z,66.44
2023-05-19T08:39:53.437Z,65.94
2023-05-19T08:42:19.996Z,64.37
2023-05-19T08:44:46.692Z,63.53
2023-05-19T08:47:14.525Z,63.93
2023-05-19T08:49:53.334Z,61.70
2023-05-19T08:52:27.740Z,61.90
2023-05-19T08:55:03.914Z,62.84
2023-05-19T08:57:31.761Z,62.62
2023-05-19T08:59:59.386Z,62.31
2023-05-19T09:02:26.871Z,63.11
2023-05-19T09:04:53.905Z,63.16
2023-05-19T09:07:22.963Z,62.37
2023-05-19T09:09:49.562Z,61.62
2023-05-19T09:12:16.749Z,62.23
2023-05-19T09:14:44.264Z,61.47
2023-05-19T09:17:11.082Z,61.36
2023-05-19T09:19:43.194Z,61.85
2023-05-19T09:22:09.749Z,61.37
2023-05-19T09:24:36.379Z,60.56
2023-05-19T09:27:03.055Z,59.07
2023-05-19T09:29:29.597Z,58.30
2023-05-19T09:31:56.534Z,58.54
2023-05-19T09:34:23.093Z,58.64
2023-05-19T09:36:49.668Z,58.31
2023-05-19T09:39:17.416Z,59.05
2023-05-19T09:41:44.579Z,59.52
2023-05-19T09:44:21.928Z,59.15
2023-05-19T09:46:52.927Z,58.87
2023-05-19T09:49:24.002Z,58.72
2023-05-19T09:51:54.707Z,57.93
2023-05-19T09:54:25.473Z,57.88
2023-05-19T09:57:00.396Z,58.34
2023-05-19T09:59:31.316Z,57.29
2023-05-19T10:02:00.542Z,56.69
2023-05-19T10:04:28.962Z,55.64
2023-05-19T10:06:57.196Z,55.31
2023-05-19T10:09:25.152Z,56.60
2023-05-19T10:11:53.262Z,55.50
2023-05-19T10:14:29.950Z,54.93
2023-05-19T10:16:58.484Z,55.68
2023-05-19T10:19:26.879Z,55.44
2023-05-19T10:21:54.220Z,54.66
2023-05-19T10:24:21.350Z,54.12
2023-05-19T10:26:55.451Z,53.30
2023-05-19T10:29:27.298Z,52.77
2023-05-19T10:31:56.560Z,51.48
2023-05-19T10:35:08.532Z,50.86
2023-05-19T10:37:45.421Z,50.70
2023-05-19T10:40:36.251Z,52.23
2023-05-19T10:43:27.798Z,51.85
2023-05-19T10:45:54.533Z,52.29
2023-05-19T10:48:21.725Z,51.12
2023-05-19T10:50:48.780Z,49.03
2023-05-19T10:53:16.760Z,48.53
2023-05-19T10:55:56.249Z,48.73
2023-05-19T10:58:44.704Z,50.21
2023-05-19T11:01:19.627Z,50.37
2023-05-19T11:03:53.425Z,50.08
2023-05-19T11:06:32.796Z,48.47
2023-05-19T11:09:12.682Z,48.03
2023-05-19T11:11:50.506Z,46.73
2023-05-19T11:14:28.800Z,47.85
2023-05-19T11:17:00.438Z,48.49
2023-05-19T11:19:28.027Z,48.77
2023-05-19T11:21:55.700Z,49.01
2023-05-19T11:24:40.480Z,48.44
2023-05-19T11:27:30.011Z,48.74
2023-05-19T11:29:58.960Z,49.24
2023-05-19T11:32:27.828Z,49.05
2023-05-19T11:34:55.612Z,48.69
2023-05-19T11:37:22.265Z,48.16
2023-05-19T11:39:49.785Z,48.10
2023-05-19T11:42:16.563Z,47.46
2023-05-19T11:44:46.360Z,48.22
2023-05-19T11:47:16.982Z,49.62
2023-05-19T11:49:45.265Z,50.56
2023-05-19T11:52:11.850Z,50.57
2023-05-19T11:54:38.387Z,50.86
2023-05-19T11:57:05.443Z,48.91
2023-05-19T11:59:33.515Z,48.79
2023-05-19T12:02:18.548Z,49.72
2023-05-19T12:04:45.701Z,49.18
2023-05-19T12:07:12.478Z,48.15
2023-05-19T12:09:39.713Z,48.61
2023-05-19T12:12:07.933Z,49.07
2023-05-19T12:14:35.122Z,48.42
2023-05-19T12:17:15.084Z,48.03
2023-05-19T12:19:45.042Z,48.73
2023-05-19T12:22:12.691Z,49.34
2023-05-19T12:24:40.583Z,48.84
2023-05-19T12:27:18.337Z,48.82
2023-05-19T12:29:54.098Z,48.87
2023-05-19T12:32:25.130Z,48.43
2023-05-19T12:34:52.463Z,48.64
2023-05-19T12:37:19.064Z,48.87
2023-05-19T12:39:45.989Z,48.76
2023-05-19T12:42:13.098Z,48.72
2023-05-19T12:44:44.687Z,49.30
2023-05-19T12:47:11.194Z,48.65
2023-05-19T12:49:53.195Z,48.14
2023-05-19T12:52:19.729Z,47.26
2023-05-19T12:54:46.440Z,46.00
2023-05-19T12:57:13.014Z,45.15
2023-05-19T12:59:42.903Z,47.38
2023-05-19T13:02:09.523Z,47.76
2023-05-19T13:04:36.207Z,47.88
2023-05-19T13:07:02.739Z,48.41
2023-05-19T13:09:29.248Z,47.90
2023-05-19T13:11:55.778Z,47.35
2023-05-19T13:14:22.332Z,47.26
2023-05-19T13:16:48.996Z,46.48
2023-05-19T13:19:25.450Z,46.59
2023-05-19T13:21:52.666Z,47.40
2023-05-19T13:24:19.201Z,47.37
2023-05-19T13:26:45.754Z,47.19
2023-05-19T13:29:12.321Z,47.37
2023-05-19T13:31:38.992Z,48.14
2023-05-19T13:34:05.563Z,48.09
2023-05-19T13:36:32.057Z,48.11
2023-05-19T13:38:58.758Z,47.44
2023-05-19T13:41:25.790Z,47.26
2023-05-19T13:43:53.117Z,46.64
2023-05-19T13:46:26.631Z,47.38
2023-05-19T13:48:59.512Z,47.06
2023-05-19T13:51:26.251Z,46.55
2023-05-19T13:53:52.921Z,47.31
2023-05-19T13:56:19.402Z,47.23
2023-05-19T13:58:45.883Z,46.78
2023-05-19T14:01:12.413Z,47.52
2023-05-19T14:03:39.063Z,47.38
2023-05-19T14:06:05.791Z,47.62
2023-05-19T14:08:32.282Z,48.14
2023-05-19T14:10:58.908Z,47.71
2023-05-19T14:13:33.381Z,46.02
2023-05-19T14:16:02.805Z,45.69
2023-05-19T14:18:29.321Z,46.19
2023-05-19T14:20:55.855Z,45.37
2023-05-19T14:23:22.374Z,45.52
2023-05-19T14:25:48.911Z,46.65
2023-05-19T14:28:15.453Z,46.27
2023-05-19T14:30:42.579Z,46.42
2023-05-19T14:33:09.122Z,45.46
2023-05-19T14:35:35.747Z,45.62
2023-05-19T14:38:02.280Z,46.49
2023-05-19T14:40:28.865Z,46.33
2023-05-19T14:42:55.412Z,46.21
2023-05-19T14:45:21.937Z,46.26
2023-05-19T14:47:48.553Z,45.77
2023-05-19T14:50:15.126Z,44.33
2023-05-19T14:52:41.659Z,44.17
2023-05-19T14:55:08.505Z,44.54
2023-05-19T14:57:35.033Z,44.88
2023-05-19T15:00:01.638Z,45.25
2023-05-19T15:02:29.638Z,44.76
2023-05-19T15:04:56.428Z,45.26
2023-05-19T15:07:22.964Z,46.56
2023-05-19T15:09:49.491Z,45.53
2023-05-19T15:12:16.055Z,45.73
2023-05-19T15:14:42.624Z,46.08
2023-05-19T15:17:09.193Z,46.14
2023-05-19T15:19:35.849Z,46.62
2023-05-19T15:22:02.357Z,46.95
2023-05-19T15:24:28.849Z,46.66
2023-05-19T15:26:55.712Z,46.88
2023-05-19T15:29:22.225Z,46.62
2023-05-19T15:31:51.960Z,46.18
2023-05-19T15:34:19.927Z,45.94
2023-05-19T15:36:46.504Z,45.94
2023-05-19T15:39:13.561Z,46.43
2023-05-19T15:41:40.074Z,47.08
2023-05-19T15:44:06.596Z,47.30
2023-05-19T15:46:33.685Z,47.47
2023-05-19T15:49:00.255Z,47.57
2023-05-19T15:51:27.096Z,46.78
2023-05-19T15:53:53.770Z,47.35
2023-05-19T15:56:20.360Z,46.88
2023-05-19T15:58:47.215Z,47.57
2023-05-19T16:01:15.084Z,46.70
2023-05-19T16:03:42.006Z,46.28
2023-05-19T16:06:08.671Z,46.96
2023-05-19T16:08:35.211Z,46.96
2023-05-19T16:11:01.748Z,46.97
2023-05-19T16:13:28.219Z,46.40
2023-05-19T16:15:54.778Z,47.01
2023-05-19T16:18:21.336Z,46.39
2023-05-19T16:20:47.832Z,47.10
2023-05-19T16:23:14.370Z,47.03
2023-05-19T16:25:40.808Z,46.86
2023-05-19T16:28:07.324Z,46.81
2023-05-19T16:30:34.142Z,46.59
2023-05-19T16:33:01.081Z,46.93
2023-05-19T16:35:27.624Z,47.54
2023-05-19T16:37:54.171Z,47.56
2023-05-19T16:40:20.729Z,47.85
2023-05-19T16:42:47.208Z,48.06
2023-05-19T16:45:13.740Z,48.47
2023-05-19T16:47:40.297Z,48.44
2023-05-19T16:50:07.582Z,49.08
2023-05-19T16:52:34.069Z,49.66
2023-05-19T16:55:00.654Z,49.32
2023-05-19T16:57:27.272Z,49.31
2023-05-19T16:59:53.867Z,49.97
2023-05-19T17:02:20.608Z,50.70
2023-05-19T17:04:47.146Z,50.61
2023-05-19T17:07:14.132Z,50.74
2023-05-19T17:09:40.910Z,50.93
2023-05-19T17:12:08.083Z,51.70
2023-05-19T17:14:35.007Z,51.83
2023-05-19T17:17:01.683Z,51.31
2023-05-19T17:19:28.411Z,51.31
2023-05-19T17:21:54.998Z,51.53
2023-05-19T17:24:21.507Z,51.46
2023-05-19T17:26:48.046Z,51.95
2023-05-19T17:29:14.565Z,52.15
2023-05-19T17:31:41.137Z,52.46
2023-05-19T17:34:07.834Z,52.56
2023-05-19T17:36:34.388Z,52.65
2023-05-19T17:39:00.902Z,53.24
2023-05-19T17:41:27.496Z,53.65
2023-05-19T17:43:54.052Z,54.10
2023-05-19T17:46:20.654Z,54.33
2023-05-19T17:48:47.225Z,54.17
2023-05-19T17:51:13.730Z,54.50
2023-05-19T17:53:40.593Z,54.70
2023-05-19T17:56:08.285Z,55.18
2023-05-19T17:58:35.028Z,55.69
2023-05-19T18:01:01.732Z,55.98
2023-05-19T18:03:28.704Z,56.66
2023-05-19T18:05:56.017Z,57.18
2023-05-19T18:08:22.931Z,57.86
2023-05-19T18:10:50.454Z,58.00
2023-05-19T18:13:17.496Z,58.46
2023-05-19T18:15:44.058Z,58.93
2023-05-19T18:18:10.804Z,59.29
2023-05-19T18:20:37.685Z,59.76
2023-05-19T18:23:04.482Z,60.24
2023-05-19T18:25:31.108Z,60.79
2023-05-19T18:27:57.669Z,61.17
2023-05-19T18:30:24.181Z,61.25
2023-05-19T18:32:50.738Z,61.95
2023-05-19T18:35:17.303Z,62.16
2023-05-19T18:37:43.842Z,62.69
2023-05-19T18:40:10.601Z,63.11
2023-05-19T18:42:37.127Z,63.48
2023-05-19T18:45:04.102Z,63.60
2023-05-19T18:47:30.728Z,63.70
2023-05-19T18:49:57.242Z,64.16
2023-05-19T18:52:23.791Z,63.96
2023-05-19T18:54:50.354Z,64.40
2023-05-19T18:57:16.890Z,64.68
2023-05-19T18:59:43.455Z,65.23
2023-05-19T19:02:09.986Z,65.44
2023-05-19T19:04:36.547Z,65.63
2023-05-19T19:07:03.161Z,65.89
2023-05-19T19:09:29.706Z,66.13
2023-05-19T19:11:56.310Z,66.36
2023-05-19T19:14:22.987Z,66.71
2023-05-19T19:16:49.538Z,66.81
2023-05-19T19:19:16.267Z,66.93
2023-05-19T19:21:42.891Z,66.89
2023-05-19T19:24:09.426Z,67.02
2023-05-19T19:26:35.951Z,67.20
2023-05-19T19:29:02.461Z,67.42
2023-05-19T19:31:29.162Z,67.81
2023-05-19T19:33:55.892Z,68.04
2023-05-19T19:36:22.415Z,68.07
2023-05-19T19:38:48.935Z,68.15
2023-05-19T19:41:15.453Z,68.46
2023-05-19T19:43:41.984Z,68.67
2023-05-19T19:46:08.499Z,68.87
2023-05-19T19:48:35.080Z,69.20
2023-05-19T19:51:01.584Z,69.24
2023-05-19T19:53:28.303Z,69.19
2023-05-19T19:56:02.175Z,69.48
2023-05-19T19:58:29.183Z,69.74
2023-05-19T20:01:00.379Z,70.15
2023-05-19T20:03:27.206Z,69.90
2023-05-19T20:05:56.171Z,70.10
2023-05-19T20:08:23.590Z,70.45
2023-05-19T20:10:50.438Z,70.59
2023-05-19T20:13:18.001Z,70.68
2023-05-19T20:15:45.833Z,70.76
2023-05-19T20:18:12.535Z,70.68
2023-05-19T20:20:42.916Z,70.50
2023-05-19T20:23:09.513Z,70.40
2023-05-19T20:25:41.141Z,70.71
2023-05-19T20:28:13.705Z,70.75
2023-05-19T20:30:40.681Z,70.62
2023-05-19T20:33:07.199Z,70.65
2023-05-19T20:35:34.066Z,70.52
2023-05-19T20:38:00.761Z,70.82
2023-05-19T20:40:27.277Z,71.03
2023-05-19T20:42:53.908Z,71.30
2023-05-19T20:45:20.470Z,71.36
2023-05-19T20:47:47.010Z,71.38
2023-05-19T20:50:13.578Z,71.42
2023-05-19T20:52:40.280Z,71.45
2023-05-19T20:55:07.119Z,71.62
2023-05-19T20:57:33.828Z,71.57
2023-05-19T21:00:00.307Z,71.56
2023-05-19T21:02:26.986Z,71.69
2023-05-19T21:04:53.530Z,71.59
2023-05-19T21:07:20.060Z,71.61
2023-05-19T21:09:46.656Z,71.63
2023-05-19T21:12:13.249Z,71.72
2023-05-19T21:14:39.786Z,71.65
2023-05-19T21:17:06.383Z,71.77
2023-05-19T21:19:33.551Z,71.84
2023-05-19T21:22:00.064Z,71.90
2023-05-19T21:24:26.564Z,72.08
2023-05-19T21:26:53.098Z,72.13
2023-05-19T21:29:19.684Z,72.26
2023-05-19T21:31:46.212Z,72.44
2023-05-19T21:34:12.768Z,72.48
2023-05-19T21:36:39.267Z,72.49
2023-05-19T21:39:05.764Z,72.63
2023-05-19T21:41:32.384Z,72.89
2023-05-19T21:43:58.973Z,72.88
2023-05-19T21:46:25.523Z,73.02
2023-05-19T21:48:52.083Z,73.23
2023-05-19T21:51:18.568Z,73.42
2023-05-19T21:53:45.262Z,73.77
2023-05-19T21:56:11.780Z,73.80
2023-05-19T21:58:38.512Z,73.94
2023-05-19T22:01:05.044Z,74.27
2023-05-19T22:03:31.707Z,74.32
2023-05-19T22:05:58.360Z,74.60
2023-05-19T22:08:25.292Z,74.68
2023-05-19T22:10:52.710Z,74.72
2023-05-19T22:13:20.028Z,74.96
2023-05-19T22:15:46.752Z,75.44
2023-05-19T22:18:13.601Z,75.55
2023-05-19T22:20:40.168Z,75.80
2023-05-19T22:23:06.642Z,76.15
2023-05-19T22:25:33.233Z,76.34
2023-05-19T22:27:59.777Z,76.34
2023-05-19T22:30:26.379Z,76.46
2023-05-19T22:32:55.386Z,76.51
2023-05-19T22:35:22.071Z,76.56
2023-05-19T22:37:48.610Z,76.59
2023-05-19T22:40:15.147Z,76.69
2023-05-19T22:42:41.676Z,76.83
2023-05-19T22:45:08.905Z,76.81
2023-05-19T22:47:35.499Z,76.94
2023-05-19T22:50:02.062Z,76.87
2023-05-19T22:52:28.544Z,76.82
2023-05-19T22:54:55.082Z,76.66
2023-05-19T22:57:21.616Z,76.68
2023-05-19T22:59:48.092Z,76.66
2023-05-19T23:02:14.579Z,76.60
2023-05-19T23:04:41.997Z,76.64
2023-05-19T23:07:08.543Z,76.55
2023-05-19T23:09:35.109Z,76.54
2023-05-19T23:12:01.715Z,76.50
2023-05-19T23:14:28.278Z,76.45
2023-05-19T23:16:54.832Z,76.37
2023-05-19T23:19:21.364Z,76.31
2023-05-19T23:21:47.936Z,76.46
2023-05-19T23:24:14.976Z,76.49
2023-05-19T23:26:44.590Z,76.51
2023-05-19T23:29:12.199Z,76.50
2023-05-19T23:31:39.787Z,76.59
2023-05-19T23:34:06.452Z,76.48
2023-05-19T23:36:32.983Z,76.45
2023-05-19T23:39:02.993Z,76.46
2023-05-19T23:41:29.531Z,76.38
2023-05-19T23:43:56.075Z,76.48
2023-05-19T23:46:22.904Z,76.42
2023-05-19T23:48:49.508Z,76.44
2023-05-19T23:51:16.170Z,76.32
2023-05-19T23:53:42.657Z,76.52
2023-05-19T23:56:10.498Z,76.48
2023-05-19T23:58:36.960Z,76.47
